Time;durP1;ratioP1;P1;durP2;ratioP2;P2;SDS_P1;SDS_P2;PMS_P1;PMS_P2;Temp;Humidity;BMP_temperature;BMP_pressure;BME280_temperature;BME280_humidity;BME280_pressure;Samples;Min_cycle;Max_cycle;Signal;HPM_P1;HPM_P2
2021/08/29 00:00:56;;;;;;;11.07;7.55;;;19.80;64.40;;;;;;5053396;28;20123;-89
2021/08/29 00:03:24;;;;;;;12.00;7.30;;;19.80;64.20;;;;;;5044909;28;20034;-85
2021/08/29 00:05:51;;;;;;;13.30;8.05;;;19.80;64.30;;;;;;5039281;28;20056;-86
2021/08/29 00:08:16;;;;;;;11.25;6.82;;;19.80;64.30;;;;;;5037349;28;20067;-86
2021/08/29 00:10:42;;;;;;;10.55;7.00;;;19.80;64.30;;;;;;5054092;28;20025;-85
2021/08/29 00:13:08;;;;;;;9.65;6.82;;;19.80;64.20;;;;;;5045846;28;20029;-85
2021/08/29 00:15:34;;;;;;;11.23;7.15;;;19.80;64.30;;;;;;5042603;28;20034;-85
2021/08/29 00:18:00;;;;;;;14.02;7.15;;;19.70;64.20;;;;;;5032865;28;20628;-85
2021/08/29 00:20:26;;;;;;;9.15;6.75;;;19.70;64.30;;;;;;5033859;28;20075;-85
2021/08/29 00:22:52;;;;;;;10.30;7.15;;;19.70;64.40;;;;;;5033813;28;20033;-86
2021/08/29 00:25:18;;;;;;;13.43;7.57;;;19.70;64.30;;;;;;5033789;28;20091;-85
2021/08/29 00:27:43;;;;;;;9.77;6.72;;;19.70;64.30;;;;;;5032623;28;20427;-85
2021/08/29 00:30:10;;;;;;;9.98;7.13;;;19.70;64.30;;;;;;5036726;28;20042;-86
2021/08/29 00:32:36;;;;;;;12.02;7.18;;;19.70;64.40;;;;;;5040066;28;20516;-87
2021/08/29 00:35:02;;;;;;;8.95;7.18;;;19.70;64.50;;;;;;5037133;28;20036;-87
2021/08/29 00:37:28;;;;;;;11.95;7.65;;;19.60;64.50;;;;;;5046425;28;20037;-88
2021/08/29 00:39:54;;;;;;;10.35;7.20;;;19.70;64.50;;;;;;5028894;28;20415;-84
2021/08/29 00:42:20;;;;;;;9.55;6.97;;;19.70;64.50;;;;;;5038009;28;20091;-85
2021/08/29 00:44:46;;;;;;;8.35;6.63;;;19.60;64.60;;;;;;5067354;28;20021;-85
2021/08/29 00:47:12;;;;;;;8.85;6.93;;;19.60;64.50;;;;;;5048517;28;20042;-85
2021/08/29 00:49:40;;;;;;;10.90;6.70;;;19.60;64.40;;;;;;5032307;28;20033;-89
2021/08/29 00:52:08;;;;;;;9.13;6.20;;;19.60;64.50;;;;;;5031872;28;20043;-88
2021/08/29 00:54:35;;;;;;;9.82;6.28;;;19.60;64.50;;;;;;5034147;28;20078;-85
2021/08/29 00:57:06;;;;;;;10.40;6.13;;;19.50;64.60;;;;;;5077783;28;20033;-85
2021/08/29 00:59:35;;;;;;;9.13;5.90;;;19.50;64.80;;;;;;5040171;28;20733;-85
2021/08/29 01:02:13;;;;;;;8.57;5.93;;;19.50;64.70;;;;;;5049589;28;20033;-85
2021/08/29 01:05:00;;;;;;;8.20;5.93;;;19.50;64.80;;;;;;5048049;28;20037;-85
2021/08/29 01:08:02;;;;;;;12.77;6.40;;;19.50;64.80;;;;;;5031769;28;20511;-85
2021/08/29 01:10:57;;;;;;;10.63;6.07;;;19.40;64.90;;;;;;5010903;28;20053;-85
2021/08/29 01:13:29;;;;;;;10.57;6.53;;;19.40;64.90;;;;;;4987440;28;20049;-84
2021/08/29 01:15:59;;;;;;;8.32;5.72;;;19.40;65.00;;;;;;5037735;28;20148;-85
2021/08/29 01:18:27;;;;;;;9.13;5.43;;;19.40;65.10;;;;;;5037612;28;20132;-85
2021/08/29 01:20:57;;;;;;;11.98;6.20;;;19.30;65.00;;;;;;5035185;28;20028;-85
2021/08/29 01:23:24;;;;;;;7.75;6.22;;;19.40;65.20;;;;;;5035009;28;20075;-85
2021/08/29 01:26:05;;;;;;;8.70;6.30;;;19.40;65.20;;;;;;5051127;28;20029;-87
2021/08/29 01:28:56;;;;;;;12.27;7.80;;;19.40;65.20;;;;;;5046406;28;20055;-88
2021/08/29 01:31:28;;;;;;;11.63;7.47;;;19.40;65.20;;;;;;5089915;28;20053;-85
2021/08/29 01:33:58;;;;;;;11.60;7.93;;;19.30;65.10;;;;;;5027440;28;20172;-86
2021/08/29 01:36:24;;;;;;;14.82;8.40;;;19.30;65.20;;;;;;5035929;28;20037;-86
2021/08/29 01:38:51;;;;;;;11.25;8.13;;;19.30;65.20;;;;;;5014878;28;20393;-86
2021/08/29 01:41:19;;;;;;;12.07;8.05;;;19.30;65.40;;;;;;5032356;28;20063;-88
2021/08/29 01:43:47;;;;;;;15.95;7.95;;;19.30;65.50;;;;;;5031191;28;20040;-88
2021/08/29 01:46:14;;;;;;;12.15;7.47;;;19.20;65.50;;;;;;5014576;28;20034;-87
2021/08/29 01:48:55;;;;;;;9.27;7.70;;;19.30;65.60;;;;;;5030971;28;20037;-86
2021/08/29 01:51:21;;;;;;;10.18;7.35;;;19.30;65.60;;;;;;5030833;28;20037;-88
2021/08/29 01:53:51;;;;;;;14.20;8.25;;;19.30;65.60;;;;;;5015251;28;20029;-87
2021/08/29 01:56:23;;;;;;;13.88;8.15;;;19.20;65.60;;;;;;5031050;28;20033;-88
2021/08/29 01:58:54;;;;;;;10.57;7.30;;;19.20;65.50;;;;;;5030865;28;20037;-88
2021/08/29 02:01:22;;;;;;;12.48;7.80;;;19.20;65.50;;;;;;5014734;28;20467;-86
2021/08/29 02:03:52;;;;;;;9.07;6.97;;;19.20;65.60;;;;;;5015076;28;20066;-88
2021/08/29 02:06:36;;;;;;;12.27;8.13;;;19.20;65.60;;;;;;5015297;28;20041;-87
2021/08/29 02:09:06;;;;;;;11.20;7.65;;;19.20;65.60;;;;;;5030823;28;20037;-88
2021/08/29 02:11:39;;;;;;;9.27;6.93;;;19.20;65.70;;;;;;5030652;28;20037;-88
2021/08/29 02:14:13;;;;;;;12.20;7.40;;;19.20;65.80;;;;;;5034879;28;20033;-88
2021/08/29 02:16:43;;;;;;;11.30;7.55;;;19.20;65.80;;;;;;5026832;28;20060;-88
2021/08/29 02:19:13;;;;;;;11.13;7.97;;;19.20;65.80;;;;;;5034990;28;20500;-85
2021/08/29 02:21:40;;;;;;;10.00;8.02;;;19.10;65.90;;;;;;5041949;28;20048;-84
2021/08/29 02:24:08;;;;;;;12.30;8.40;;;19.10;66.00;;;;;;5058200;28;20030;-85
2021/08/29 02:26:34;;;;;;;14.23;7.97;;;19.10;65.90;;;;;;5043546;28;20440;-86
2021/08/29 02:29:13;;;;;;;15.23;8.68;;;19.10;65.90;;;;;;5033322;28;20478;-86
2021/08/29 02:31:39;;;;;;;10.93;8.10;;;19.10;66.00;;;;;;5036777;28;20053;-87
2021/08/29 02:34:05;;;;;;;11.65;7.90;;;19.10;65.90;;;;;;5034303;28;20057;-86
2021/08/29 02:36:32;;;;;;;12.95;7.88;;;19.10;65.90;;;;;;5036134;28;20029;-85
2021/08/29 02:39:00;;;;;;;11.10;7.72;;;19.10;66.00;;;;;;5037525;28;20059;-85
2021/08/29 02:41:28;;;;;;;13.50;8.02;;;19.10;66.10;;;;;;5048798;28;20040;-85
2021/08/29 02:43:56;;;;;;;10.15;7.70;;;19.10;66.00;;;;;;5041652;28;20033;-85
2021/08/29 02:46:23;;;;;;;11.68;7.57;;;19.00;66.20;;;;;;5036788;28;20037;-85
2021/08/29 02:48:50;;;;;;;11.35;7.15;;;19.00;66.10;;;;;;5037324;28;20132;-84
2021/08/29 02:51:17;;;;;;;10.63;7.28;;;19.00;66.20;;;;;;5052599;28;20044;-85
2021/08/29 02:53:47;;;;;;;10.18;7.57;;;19.00;66.30;;;;;;5018327;28;20492;-84
2021/08/29 02:56:13;;;;;;;12.68;7.85;;;19.00;66.40;;;;;;5034350;28;20037;-85
2021/08/29 02:58:40;;;;;;;14.85;7.53;;;19.00;67.10;;;;;;5034309;28;20033;-85
2021/08/29 03:01:17;;;;;;;11.13;7.78;;;18.90;66.50;;;;;;5019269;28;20029;-86
2021/08/29 03:04:02;;;;;;;15.23;7.50;;;18.90;66.60;;;;;;5046659;28;20146;-85
2021/08/29 03:06:31;;;;;;;12.52;8.00;;;18.90;66.70;;;;;;5037399;28;20116;-87
2021/08/29 03:08:58;;;;;;;14.98;7.78;;;18.90;66.80;;;;;;5025799;28;20037;-87
2021/08/29 03:11:24;;;;;;;10.43;7.75;;;18.90;66.80;;;;;;5020955;28;20397;-85
2021/08/29 03:13:51;;;;;;;11.23;6.97;;;18.90;66.90;;;;;;5027081;28;20191;-84
2021/08/29 03:16:17;;;;;;;12.35;7.82;;;18.90;67.50;;;;;;5031695;28;20042;-86
2021/08/29 03:18:49;;;;;;;10.77;7.32;;;18.90;67.00;;;;;;5034079;28;20033;-85
2021/08/29 03:21:47;;;;;;;15.65;7.28;;;19.00;67.10;;;;;;5034250;28;20120;-86
2021/08/29 03:24:14;;;;;;;9.95;7.13;;;19.00;67.10;;;;;;5034658;28;20128;-86
2021/08/29 03:26:40;;;;;;;10.02;6.10;;;19.00;67.00;;;;;;5065161;28;20122;-85
2021/08/29 03:29:15;;;;;;;10.80;7.15;;;19.00;67.10;;;;;;5038224;28;20568;-86
2021/08/29 03:31:41;;;;;;;9.75;7.13;;;18.90;67.00;;;;;;5041172;28;20053;-85
2021/08/29 03:34:13;;;;;;;11.40;6.55;;;19.00;67.10;;;;;;5033551;28;20040;-86
2021/08/29 03:36:42;;;;;;;12.48;7.28;;;19.00;67.10;;;;;;5017053;28;20072;-85
2021/08/29 03:39:11;;;;;;;11.23;6.82;;;19.00;67.10;;;;;;5066463;28;20415;-85
2021/08/29 03:41:40;;;;;;;11.05;7.20;;;19.00;67.10;;;;;;5040767;28;20086;-85
2021/08/29 03:44:13;;;;;;;12.32;6.75;;;19.00;67.20;;;;;;5049247;28;20458;-85
2021/08/29 03:46:40;;;;;;;11.32;6.88;;;19.00;67.20;;;;;;5050080;28;20124;-86
2021/08/29 03:49:25;;;;;;;10.20;6.65;;;19.00;67.30;;;;;;5039590;28;20037;-86
2021/08/29 03:51:53;;;;;;;11.00;7.28;;;19.00;67.30;;;;;;5050339;28;20136;-86
2021/08/29 03:54:20;;;;;;;11.13;7.47;;;19.00;67.20;;;;;;5032636;28;20053;-87
2021/08/29 03:56:46;;;;;;;11.65;7.68;;;19.00;67.80;;;;;;5032576;28;20037;-86
2021/08/29 03:59:12;;;;;;;9.70;7.90;;;19.00;67.30;;;;;;5015586;28;20037;-87
2021/08/29 04:01:38;;;;;;;10.98;7.38;;;19.10;67.40;;;;;;5029441;28;20036;-87
2021/08/29 04:04:06;;;;;;;13.30;7.90;;;19.10;67.50;;;;;;5041478;28;20067;-86
2021/08/29 04:06:34;;;;;;;9.90;7.72;;;19.10;67.40;;;;;;5043243;28;20037;-87
2021/08/29 04:09:07;;;;;;;14.10;8.18;;;19.10;67.40;;;;;;5020625;28;20040;-85
2021/08/29 04:11:34;;;;;;;12.48;7.70;;;19.10;67.40;;;;;;5042148;28;20037;-84
2021/08/29 04:14:01;;;;;;;9.63;6.93;;;19.10;67.40;;;;;;5075048;28;20079;-85
2021/08/29 04:16:30;;;;;;;12.02;7.90;;;19.20;67.40;;;;;;5046686;28;20458;-86
2021/08/29 04:19:05;;;;;;;10.37;7.57;;;19.20;67.50;;;;;;5038014;28;20467;-87
2021/08/29 04:21:34;;;;;;;12.70;7.80;;;19.20;67.30;;;;;;5035933;28;20275;-87
2021/08/29 04:24:01;;;;;;;15.15;8.30;;;19.20;67.40;;;;;;5036448;28;20038;-88
2021/08/29 04:26:38;;;;;;;12.77;8.82;;;19.20;67.30;;;;;;5050182;28;20040;-87
2021/08/29 04:29:05;;;;;;;13.20;8.43;;;19.30;67.30;;;;;;5032220;28;20504;-86
2021/08/29 04:31:32;;;;;;;13.50;7.93;;;19.20;67.30;;;;;;5029222;28;20049;-87
2021/08/29 04:34:06;;;;;;;11.60;7.70;;;19.30;67.30;;;;;;5052007;28;20036;-87
2021/08/29 04:36:43;;;;;;;11.90;7.78;;;19.30;67.30;;;;;;5036236;28;20028;-87
2021/08/29 04:39:37;;;;;;;12.43;8.63;;;19.30;67.30;;;;;;5038373;28;20033;-89
2021/08/29 04:42:04;;;;;;;10.68;8.35;;;19.40;67.20;;;;;;5052963;28;20037;-88
2021/08/29 04:44:30;;;;;;;11.98;8.15;;;19.40;67.10;;;;;;5051931;28;20040;-87
2021/08/29 04:46:58;;;;;;;14.50;8.20;;;19.50;67.10;;;;;;5035368;28;20426;-87
2021/08/29 04:49:25;;;;;;;12.68;8.20;;;19.60;66.90;;;;;;5048830;28;20059;-86
2021/08/29 04:51:51;;;;;;;14.38;8.50;;;19.60;66.70;;;;;;5034281;28;20078;-87
2021/08/29 04:54:19;;;;;;;13.52;8.10;;;19.70;66.60;;;;;;5040927;28;20021;-86
2021/08/29 04:56:45;;;;;;;13.50;8.63;;;19.80;66.70;;;;;;5042622;28;20079;-86
2021/08/29 04:59:14;;;;;;;11.82;7.78;;;19.90;66.60;;;;;;5045105;28;20021;-87
2021/08/29 05:01:42;;;;;;;12.32;7.82;;;20.00;66.40;;;;;;5042667;28;20045;-86
2021/08/29 05:04:08;;;;;;;11.60;8.07;;;20.00;66.30;;;;;;5036067;28;20584;-87
2021/08/29 05:06:34;;;;;;;13.40;8.57;;;20.10;66.10;;;;;;5027459;28;20128;-87
2021/08/29 05:09:01;;;;;;;15.82;8.82;;;20.20;65.90;;;;;;5051359;28;20119;-88
2021/08/29 05:11:27;;;;;;;12.45;8.35;;;20.10;65.80;;;;;;5034793;28;20480;-87
2021/08/29 05:13:53;;;;;;;13.32;8.43;;;20.20;65.70;;;;;;5034150;28;20119;-87
2021/08/29 05:16:19;;;;;;;12.07;8.27;;;20.20;65.70;;;;;;5031663;28;20128;-87
2021/08/29 05:18:45;;;;;;;13.35;7.95;;;20.20;65.90;;;;;;5020809;28;20478;-87
2021/08/29 05:21:19;;;;;;;9.45;7.95;;;20.30;66.00;;;;;;5081890;28;20029;-87
2021/08/29 05:24:04;;;;;;;10.82;7.45;;;20.60;66.00;;;;;;5046996;28;20037;-85
2021/08/29 05:26:47;;;;;;;11.90;7.57;;;20.90;65.50;;;;;;5019986;28;20047;-86
2021/08/29 05:29:14;;;;;;;16.02;8.57;;;21.20;65.20;;;;;;5052525;28;20037;-85
2021/08/29 05:31:41;;;;;;;13.48;8.25;;;21.40;64.70;;;;;;5050135;28;20073;-85
2021/08/29 05:34:08;;;;;;;12.15;8.23;;;21.50;64.20;;;;;;5037507;28;20505;-85
2021/08/29 05:36:34;;;;;;;12.30;7.85;;;21.60;64.10;;;;;;5031069;28;20053;-87
2021/08/29 05:39:00;;;;;;;11.05;7.65;;;21.80;64.10;;;;;;5019652;28;20107;-85
2021/08/29 05:41:31;;;;;;;12.48;7.50;;;21.90;64.10;;;;;;5035795;28;20030;-84
2021/08/29 05:44:15;;;;;;;12.27;7.95;;;22.10;64.20;;;;;;5043030;28;20482;-84
2021/08/29 05:46:43;;;;;;;11.43;8.05;;;22.20;63.80;;;;;;5031616;28;20036;-87
2021/08/29 05:49:09;;;;;;;10.00;7.18;;;22.40;64.00;;;;;;5052091;28;20036;-84
2021/08/29 05:51:35;;;;;;;9.20;7.45;;;22.50;63.90;;;;;;5050624;28;20133;-85
2021/08/29 05:54:02;;;;;;;11.57;7.10;;;22.60;63.70;;;;;;5036679;28;20064;-85
2021/08/29 05:56:28;;;;;;;15.55;7.70;;;22.60;63.70;;;;;;5036837;28;20029;-85
2021/08/29 05:58:56;;;;;;;11.23;7.00;;;22.70;64.00;;;;;;5053391;28;20040;-86
2021/08/29 06:01:22;;;;;;;9.52;6.95;;;22.90;63.90;;;;;;5028923;28;20032;-85
2021/08/29 06:03:48;;;;;;;13.80;6.78;;;23.10;63.70;;;;;;5032133;28;20047;-87
2021/08/29 06:06:35;;;;;;;11.88;6.85;;;23.30;63.50;;;;;;5048741;28;20090;-86
2021/08/29 06:09:02;;;;;;;9.70;6.43;;;23.60;63.20;;;;;;5040654;28;20056;-88
2021/08/29 06:11:29;;;;;;;10.27;6.72;;;23.80;62.90;;;;;;5053262;28;20033;-89
2021/08/29 06:13:57;;;;;;;10.32;7.05;;;23.90;62.50;;;;;;5052005;28;20608;-85
2021/08/29 06:16:24;;;;;;;9.38;7.03;;;24.10;62.50;;;;;;5053347;28;20025;-90
2021/08/29 06:18:51;;;;;;;14.18;6.95;;;24.30;62.30;;;;;;5033189;28;20091;-93
2021/08/29 06:21:19;;;;;;;12.82;6.53;;;24.60;61.90;;;;;;5037542;28;20090;-89
2021/08/29 06:23:46;;;;;;;10.10;7.25;;;24.80;61.40;;;;;;5032853;28;20412;-88
2021/08/29 06:26:31;;;;;;;9.93;6.70;;;25.10;60.70;;;;;;5051308;28;20098;-92
2021/08/29 06:29:32;;;;;;;7.90;6.75;;;25.40;60.00;;;;;;5022868;28;20037;-88
2021/08/29 06:32:27;;;;;;;12.18;7.25;;;25.60;59.20;;;;;;4972789;28;20062;-88
2021/08/29 06:34:59;;;;;;;11.65;7.03;;;25.80;58.90;;;;;;4957556;28;20046;-85
2021/08/29 06:37:40;;;;;;;8.30;6.53;;;25.90;58.60;;;;;;5031298;28;20586;-88
2021/08/29 06:40:06;;;;;;;10.85;7.32;;;25.80;58.60;;;;;;5051562;28;20029;-88
2021/08/29 06:42:32;;;;;;;10.38;7.10;;;25.80;58.90;;;;;;5039381;28;20136;-89
2021/08/29 06:45:27;;;;;;;21.17;7.20;;;25.70;59.20;;;;;;5023736;28;20082;-82
2021/08/29 06:48:12;;;;;;;12.55;6.85;;;25.70;58.90;;;;;;5046345;28;20607;-84
2021/08/29 06:50:56;;;;;;;10.20;7.00;;;25.70;59.20;;;;;;5039897;28;20048;-85
2021/08/29 06:53:42;;;;;;;12.43;7.10;;;25.60;59.10;;;;;;5032030;28;20183;-85
2021/08/29 06:56:27;;;;;;;12.00;7.50;;;25.70;59.50;;;;;;5033347;28;20530;-86
2021/08/29 06:59:07;;;;;;;11.55;7.07;;;25.70;59.50;;;;;;5032576;28;20103;-86
2021/08/29 07:01:33;;;;;;;14.27;7.50;;;25.70;59.20;;;;;;5070350;28;20535;-85
2021/08/29 07:03:59;;;;;;;12.93;7.65;;;25.70;59.10;;;;;;5040952;28;20530;-84
2021/08/29 07:06:25;;;;;;;12.18;8.50;;;25.70;59.10;;;;;;5016751;28;20068;-83
2021/08/29 07:09:09;;;;;;;13.80;8.68;;;25.80;57.60;;;;;;5038813;28;20407;-82
2021/08/29 07:11:36;;;;;;;11.40;8.45;;;25.70;56.70;;;;;;5051058;28;20040;-83
2021/08/29 07:14:40;;;;;;;16.75;8.48;;;25.60;56.90;;;;;;5054963;28;20692;-81
2021/08/29 07:17:06;;;;;;;13.32;8.57;;;25.60;57.20;;;;;;5037069;28;20056;-82
2021/08/29 07:19:33;;;;;;;18.20;8.45;;;25.50;57.10;;;;;;5048551;28;20097;-82
2021/08/29 07:22:17;;;;;;;12.48;8.55;;;25.40;56.80;;;;;;5041973;28;20514;-84
2021/08/29 07:25:02;;;;;;;13.88;8.15;;;25.30;57.00;;;;;;5047520;28;20051;-83
2021/08/29 07:27:46;;;;;;;11.37;8.30;;;25.20;57.30;;;;;;5045037;28;20129;-82
2021/08/29 07:30:33;;;;;;;16.85;9.07;;;25.10;57.20;;;;;;5217679;22;20111;-89
2021/08/29 07:33:06;;;;;;;13.30;7.75;;;25.10;57.60;;;;;;5017046;28;20039;-88
2021/08/29 07:35:39;;;;;;;11.73;8.82;;;25.00;57.60;;;;;;5035825;28;20072;-93
2021/08/29 07:38:26;;;;;;;11.77;8.48;;;24.80;57.70;;;;;;5021899;28;20446;-86
2021/08/29 07:40:53;;;;;;;16.73;8.50;;;24.70;58.10;;;;;;5020508;28;20044;-88
2021/08/29 07:43:19;;;;;;;13.27;8.52;;;24.70;58.10;;;;;;5023171;28;20120;-89
2021/08/29 07:45:46;;;;;;;13.27;7.85;;;24.60;58.90;;;;;;5021858;28;20044;-87
2021/08/29 07:48:12;;;;;;;13.57;9.25;;;24.70;58.60;;;;;;5039988;28;20071;-90
2021/08/29 07:50:38;;;;;;;15.32;8.38;;;24.70;58.60;;;;;;5020432;28;20033;-89
2021/08/29 07:53:04;;;;;;;13.02;8.23;;;24.70;58.80;;;;;;5034620;28;20060;-91
2021/08/29 07:56:05;;;;;;;12.85;8.07;;;24.70;59.00;;;;;;5051906;28;20044;-89
2021/08/29 07:58:38;;;;;;;17.27;8.75;;;24.60;59.10;;;;;;5036280;28;20037;-90
2021/08/29 08:01:12;;;;;;;13.43;8.02;;;24.50;59.20;;;;;;5017746;28;20535;-90
2021/08/29 08:03:38;;;;;;;10.45;8.20;;;24.50;59.80;;;;;;5034236;28;20048;-90
2021/08/29 08:06:40;;;;;;;15.65;8.05;;;24.50;60.00;;;;;;5038407;28;20025;-89
2021/08/29 08:09:25;;;;;;;11.50;8.85;;;24.60;59.30;;;;;;5039649;28;20072;-90
2021/08/29 08:12:17;;;;;;;14.98;8.45;;;24.50;59.40;;;;;;4951898;28;20070;-90
2021/08/29 08:14:43;;;;;;;10.85;7.97;;;24.50;59.80;;;;;;4956494;28;20039;-91
2021/08/29 08:17:09;;;;;;;10.85;7.90;;;24.50;60.20;;;;;;4987154;28;20087;-88
2021/08/29 08:19:39;;;;;;;11.57;8.00;;;24.40;60.50;;;;;;5032431;28;20034;-90
2021/08/29 08:22:07;;;;;;;17.75;7.80;;;24.40;60.60;;;;;;5016171;28;20458;-89
2021/08/29 08:24:52;;;;;;;12.60;7.38;;;24.40;60.60;;;;;;5039506;28;20041;-94
2021/08/29 08:27:44;;;;;;;11.88;7.57;;;24.40;60.30;;;;;;5009575;28;20091;-90
2021/08/29 08:30:29;;;;;;;14.07;8.32;;;24.40;60.90;;;;;;5012895;28;20112;-90
2021/08/29 08:33:15;;;;;;;17.27;7.68;;;24.30;60.90;;;;;;5038789;28;20071;-95
2021/08/29 08:36:13;;;;;;;14.98;7.55;;;24.40;60.90;;;;;;5038654;28;20033;-93
2021/08/29 08:39:00;;;;;;;12.63;8.10;;;24.30;61.10;;;;;;5042983;28;20071;-91
2021/08/29 08:41:49;;;;;;;15.00;8.77;;;24.40;61.40;;;;;;5048385;28;20420;-91
2021/08/29 08:44:34;;;;;;;18.00;8.77;;;24.40;61.30;;;;;;5047380;28;20166;-95
2021/08/29 08:47:33;;;;;;;14.65;7.65;;;24.40;61.30;;;;;;5018122;28;20042;-90
2021/08/29 08:50:26;;;;;;;14.13;7.60;;;24.40;61.20;;;;;;5047840;28;20097;-88
2021/08/29 08:53:14;;;;;;;14.77;8.02;;;24.40;61.20;;;;;;5041354;28;20137;-93
2021/08/29 08:56:01;;;;;;;12.55;8.50;;;24.40;61.40;;;;;;5043388;28;20060;-91
2021/08/29 08:58:49;;;;;;;12.98;8.00;;;24.40;61.90;;;;;;5040857;28;20116;-89
2021/08/29 09:01:35;;;;;;;14.32;8.48;;;24.30;62.10;;;;;;5040589;28;20043;-90
2021/08/29 09:04:42;;;;;;;12.48;8.02;;;24.30;61.80;;;;;;5040985;28;20037;-94
2021/08/29 09:07:20;;;;;;;11.85;7.60;;;24.30;61.60;;;;;;5022159;28;20511;-89
2021/08/29 09:09:47;;;;;;;10.88;8.20;;;24.30;61.40;;;;;;5039740;28;20123;-93
2021/08/29 09:12:17;;;;;;;12.90;7.72;;;24.20;61.50;;;;;;5034251;28;20029;-85
2021/08/29 09:14:48;;;;;;;14.13;8.00;;;24.20;62.10;;;;;;5016027;28;20029;-86
2021/08/29 09:17:31;;;;;;;19.58;9.30;;;24.20;62.30;;;;;;5024348;28;20103;-94
2021/08/29 09:20:16;;;;;;;11.80;8.40;;;24.20;62.50;;;;;;5042271;28;20029;-92
2021/08/29 09:22:52;;;;;;;12.57;8.13;;;24.20;62.10;;;;;;5367831;22;20023;-92
2021/08/29 09:25:56;;;;;;;12.13;7.85;;;24.20;63.30;;;;;;5146516;22;20133;-87
2021/08/29 09:28:31;;;;;;;;;;;24.20;63.20;;;;;;5053822;28;20033;-88
2021/08/29 09:31:08;;;;;;;13.10;7.97;;;24.30;63.60;;;;;;5069815;28;19970;-89
2021/08/29 09:33:38;;;;;;;11.02;8.05;;;24.30;63.30;;;;;;5051696;28;20494;-88
2021/08/29 09:36:10;;;;;;;19.10;8.10;;;24.30;62.70;;;;;;5034392;28;20499;-89
2021/08/29 09:39:17;;;;;;;15.13;7.60;;;24.30;62.80;;;;;;4990595;28;20121;-90
2021/08/29 09:42:08;;;;;;;10.73;7.75;;;24.30;62.50;;;;;;4976874;28;20045;-89
2021/08/29 09:44:43;;;;;;;12.48;7.88;;;24.30;62.70;;;;;;5050643;28;20170;-89
2021/08/29 09:47:29;;;;;;;13.05;7.55;;;24.30;62.50;;;;;;5051791;28;20037;-88
2021/08/29 09:50:18;;;;;;;11.35;7.20;;;24.30;62.60;;;;;;5054856;28;20163;-87
2021/08/29 09:53:31;;;;;;;16.17;7.20;;;24.30;62.30;;;;;;5050442;28;20503;-88
2021/08/29 09:56:22;;;;;;;10.38;6.93;;;24.30;62.20;;;;;;5036479;28;20049;-88
2021/08/29 09:59:07;;;;;;;13.73;7.68;;;24.40;62.70;;;;;;5054453;28;20056;-88
2021/08/29 10:01:56;;;;;;;10.63;7.85;;;24.40;62.80;;;;;;5044855;28;20112;-88
2021/08/29 10:04:30;;;;;;;15.57;7.45;;;24.40;62.10;;;;;;5055161;28;20127;-88
2021/08/29 10:07:16;;;;;;;13.27;7.40;;;24.40;62.20;;;;;;5068082;28;20071;-88
2021/08/29 10:09:43;;;;;;;12.98;8.02;;;24.50;62.00;;;;;;5051403;28;20032;-88
2021/08/29 10:12:21;;;;;;;13.60;7.10;;;24.50;62.20;;;;;;5050473;28;20032;-87
2021/08/29 10:14:48;;;;;;;10.10;7.43;;;24.50;62.90;;;;;;5033141;28;20495;-88
2021/08/29 10:17:32;;;;;;;16.92;8.90;;;24.50;62.30;;;;;;5050867;28;20044;-89
2021/08/29 10:20:22;;;;;;;11.77;7.95;;;24.50;62.20;;;;;;5051163;28;20079;-88
2021/08/29 10:23:07;;;;;;;11.32;7.85;;;24.40;62.10;;;;;;5051312;28;20602;-88
2021/08/29 10:25:38;;;;;;;13.48;8.48;;;24.40;62.20;;;;;;5050326;28;20099;-89
2021/08/29 10:28:28;;;;;;;14.20;7.78;;;24.40;62.10;;;;;;5050152;28;20036;-89
2021/08/29 10:31:05;;;;;;;15.75;7.97;;;24.40;62.60;;;;;;5050343;28;20414;-88
2021/08/29 10:34:02;;;;;;;12.75;8.00;;;24.40;62.90;;;;;;5049890;28;20040;-89
2021/08/29 10:36:29;;;;;;;14.07;8.52;;;24.40;63.10;;;;;;5053617;28;20033;-86
2021/08/29 10:39:03;;;;;;;;;;;24.40;62.80;;;;;;5054454;28;20072;-88
2021/08/29 10:41:36;;;;;;;11.48;7.97;;;24.40;63.00;;;;;;5054946;28;19912;-88
2021/08/29 10:44:14;;;;;;;16.70;7.20;;;24.50;63.10;;;;;;5053663;28;20033;-88
2021/08/29 10:47:04;;;;;;;16.15;8.25;;;24.50;63.30;;;;;;5054487;28;20500;-87
2021/08/29 10:49:48;;;;;;;;;;;24.50;62.70;;;;;;5054861;28;20086;-87
2021/08/29 10:52:15;;;;;;;12.48;7.90;;;24.40;62.80;;;;;;5053379;28;20003;-89
2021/08/29 10:54:55;;;;;;;12.60;7.38;;;24.40;62.70;;;;;;5053338;28;20037;-87
2021/08/29 10:57:30;;;;;;;11.02;8.02;;;24.40;62.60;;;;;;5053266;28;20036;-88
2021/08/29 11:00:00;;;;;;;;;;;24.40;62.80;;;;;;5053694;28;20032;-89
2021/08/29 11:02:50;;;;;;;13.25;7.82;;;24.40;62.70;;;;;;5053465;28;19917;-89
2021/08/29 11:05:49;;;;;;;14.02;7.70;;;24.40;62.80;;;;;;5054149;28;20495;-87
2021/08/29 11:08:29;;;;;;;13.27;7.68;;;24.40;63.40;;;;;;5053049;28;20155;-87
2021/08/29 11:10:57;;;;;;;15.07;8.43;;;24.40;63.30;;;;;;5053195;28;20043;-89
2021/08/29 11:13:34;;;;;;;14.05;7.55;;;24.40;63.10;;;;;;5053212;28;20048;-87
2021/08/29 11:16:11;;;;;;;14.48;8.07;;;24.40;63.50;;;;;;5036827;28;20037;-89
2021/08/29 11:18:59;;;;;;;11.33;8.63;;;24.40;63.80;;;;;;5053494;28;20079;-88
2021/08/29 11:21:27;;;;;;;14.48;8.60;;;24.40;63.70;;;;;;5036607;28;20128;-88
2021/08/29 11:24:53;;;;;;;12.93;7.63;;;24.40;63.60;;;;;;4973007;28;20059;-88
2021/08/29 11:27:40;;;;;;;12.23;7.22;;;24.40;63.80;;;;;;4998773;28;20466;-88
2021/08/29 11:30:26;;;;;;;;;;;24.40;64.00;;;;;;5034477;28;20063;-89
2021/08/29 11:33:03;;;;;;;9.98;7.25;;;24.50;64.10;;;;;;5036138;28;19916;-89
2021/08/29 11:35:36;;;;;;;14.15;9.07;;;24.50;64.00;;;;;;5052746;28;20033;-89
2021/08/29 11:38:22;;;;;;;13.32;8.40;;;24.40;63.70;;;;;;5054235;28;20120;-89
2021/08/29 11:41:00;;;;;;;14.07;8.07;;;24.40;64.00;;;;;;5036490;28;20475;-88
2021/08/29 11:43:27;;;;;;;12.10;8.38;;;24.40;64.10;;;;;;5052461;28;20029;-88
2021/08/29 11:46:22;;;;;;;12.63;8.13;;;24.40;64.20;;;;;;5035704;28;20037;-87
2021/08/29 11:49:13;;;;;;;12.45;7.82;;;24.30;64.20;;;;;;5052367;28;20033;-88
2021/08/29 11:51:50;;;;;;;10.60;6.72;;;24.40;64.40;;;;;;5068879;28;20040;-88
2021/08/29 11:54:23;;;;;;;17.30;8.30;;;24.40;64.50;;;;;;5052422;28;20033;-88
2021/08/29 11:56:55;;;;;;;13.55;8.05;;;24.50;64.50;;;;;;5069031;28;20039;-88
2021/08/29 11:59:28;;;;;;;11.35;8.02;;;24.50;64.40;;;;;;5052021;28;20405;-88
2021/08/29 12:01:57;;;;;;;13.20;7.97;;;24.40;64.40;;;;;;5052120;28;20086;-88
2021/08/29 12:04:24;;;;;;;13.75;7.57;;;24.50;64.80;;;;;;5051959;28;20087;-88
2021/08/29 12:07:11;;;;;;;13.30;7.55;;;24.40;64.60;;;;;;5042108;28;20041;-88
2021/08/29 12:09:56;;;;;;;13.18;7.43;;;24.50;64.60;;;;;;5053164;28;20090;-88
2021/08/29 12:12:40;;;;;;;16.80;7.82;;;24.50;64.60;;;;;;5053121;28;20044;-88
2021/08/29 12:15:36;;;;;;;16.02;7.53;;;24.60;64.60;;;;;;5011890;28;20037;-88
2021/08/29 12:18:25;;;;;;;12.48;7.63;;;24.60;64.70;;;;;;5011914;28;20307;-88
2021/08/29 12:20:53;;;;;;;11.52;6.88;;;24.60;64.50;;;;;;5033013;28;20149;-88
2021/08/29 12:23:49;;;;;;;11.98;7.22;;;24.60;64.40;;;;;;4991959;28;20030;-87
2021/08/29 12:26:21;;;;;;;9.40;6.65;;;24.60;64.60;;;;;;4993500;28;20058;-88
2021/08/29 12:29:00;;;;;;;13.07;7.72;;;24.60;64.80;;;;;;5026197;28;20091;-88
2021/08/29 12:31:27;;;;;;;13.25;7.28;;;24.60;64.90;;;;;;5052625;28;20103;-88
2021/08/29 12:33:53;;;;;;;12.55;7.35;;;24.60;64.40;;;;;;5052373;28;20036;-88
2021/08/29 12:36:19;;;;;;;13.38;7.07;;;24.60;64.50;;;;;;5052305;28;20033;-91
2021/08/29 12:38:52;;;;;;;11.50;6.47;;;24.60;64.60;;;;;;5035926;28;20518;-91
2021/08/29 12:41:18;;;;;;;14.68;7.00;;;24.60;64.50;;;;;;5052713;28;20063;-88
2021/08/29 12:43:44;;;;;;;16.35;7.20;;;24.60;64.70;;;;;;5051447;28;20487;-87
2021/08/29 12:46:15;;;;;;;13.82;7.15;;;24.70;64.90;;;;;;5033811;28;20025;-85
2021/08/29 12:48:41;;;;;;;12.48;7.00;;;24.60;64.70;;;;;;5051841;28;20033;-89
2021/08/29 12:51:09;;;;;;;13.20;6.68;;;24.60;64.80;;;;;;5051870;28;20029;-88
2021/08/29 12:53:39;;;;;;;9.15;6.95;;;24.60;64.80;;;;;;5034597;28;20039;-87
2021/08/29 12:56:05;;;;;;;10.50;6.65;;;24.60;65.00;;;;;;5051578;28;20033;-87
2021/08/29 12:58:35;;;;;;;12.13;6.90;;;24.60;65.00;;;;;;5051827;28;20040;-87
2021/08/29 13:01:03;;;;;;;10.90;7.03;;;24.60;65.00;;;;;;5051713;28;20029;-89
2021/08/29 13:03:30;;;;;;;13.98;7.00;;;24.60;65.20;;;;;;5051875;28;20098;-87
2021/08/29 13:06:06;;;;;;;18.00;8.07;;;24.60;65.10;;;;;;5035896;28;20037;-87
2021/08/29 13:08:44;;;;;;;14.00;6.68;;;24.60;65.00;;;;;;5054277;28;20037;-86
2021/08/29 13:11:12;;;;;;;11.18;6.65;;;24.60;65.00;;;;;;5053957;28;20554;-85
2021/08/29 13:13:49;;;;;;;9.25;6.53;;;24.60;65.10;;;;;;5049397;28;20033;-85
2021/08/29 13:16:16;;;;;;;11.43;6.32;;;24.60;65.30;;;;;;5043901;28;20037;-86
2021/08/29 13:18:44;;;;;;;15.48;6.90;;;24.60;65.20;;;;;;5041971;28;20121;-86